Time;durP1;ratioP1;P1;durP2;ratioP2;P2;SDS_P1;SDS_P2;PMS_P1;PMS_P2;Temp;Humidity;BMP_temperature;BMP_pressure;BME280_temperature;BME280_humidity;BME280_pressure;Samples;Min_cycle;Max_cycle;Signal;HPM_P1;HPM_P2
2020/12/21 01:09:48;;;;;;;;;;;;;;;;;;;;;
2020/12/21 01:13:52;;;;;;;58.28;29.00;;;-0.70;99.90;;;;;;5049524;28;20126;-92
2020/12/21 01:20:38;;;;;;;70.12;32.90;;;-0.80;99.90;;;;;;5044992;28;20148;-91
2020/12/21 01:24:41;;;;;;;;;;;;;;;;;;;;;
2020/12/21 01:28:12;;;;;;;70.57;33.65;;;-0.80;99.90;;;;;;5025490;28;20101;-92
2020/12/21 01:44:08;;;;;;;51.37;25.10;;;-0.80;99.90;;;;;;5003180;28;20085;-92
2020/12/21 01:48:05;;;;;;;;;;;;;;;;;;;;;
2020/12/21 01:51:33;;;;;;;;;;;;;;;;;;;;;
2020/12/21 01:54:35;;;;;;;69.57;28.55;;;-0.80;99.90;;;;;;4926826;29;20090;-92
2020/12/21 02:01:07;;;;;;;64.00;28.02;;;-1.00;99.90;;;;;;5092604;27;20173;-91
2020/12/21 02:04:48;;;;;;;;;;;;;;;;;;;;;
2020/12/21 02:08:16;;;;;;;53.65;25.88;;;-0.90;99.90;;;;;;5191825;27;20187;-92
2020/12/21 02:11:44;;;;;;;53.70;23.50;;;-1.00;99.90;;;;;;5136943;27;20138;-91
2020/12/21 02:14:59;;;;;;;46.28;23.10;;;-1.00;99.90;;;;;;5147916;27;20135;-92
2020/12/21 02:18:25;;;;;;;63.08;27.08;;;-0.90;99.90;;;;;;5163186;27;20095;-92
2020/12/21 02:21:27;;;;;;;50.50;23.98;;;-1.00;99.90;;;;;;5147058;27;20126;-92
2020/12/21 02:25:09;;;;;;;57.13;26.83;;;-1.00;99.90;;;;;;5127698;28;20103;-92
2020/12/21 02:28:34;;;;;;;57.72;26.20;;;-1.00;99.90;;;;;;5151895;27;20111;-91
2020/12/21 02:31:58;;;;;;;35.83;18.15;;;-0.90;99.90;;;;;;5139226;27;20102;-92
2020/12/21 02:35:21;;;;;;;38.75;19.12;;;-0.90;99.90;;;;;;5146615;27;20091;-91
2020/12/21 02:38:19;;;;;;;55.67;25.12;;;-0.80;99.90;;;;;;5139358;27;20578;-91
2020/12/21 02:41:25;;;;;;;51.80;24.63;;;-0.80;99.90;;;;;;5187643;27;20082;-91
2020/12/21 02:44:31;;;;;;;54.92;24.92;;;-0.70;99.90;;;;;;5177568;27;20132;-91
2020/12/21 02:47:57;;;;;;;43.60;23.73;;;-0.70;99.90;;;;;;5132576;27;20466;-91
2020/12/21 02:50:56;;;;;;;46.30;22.52;;;-0.70;99.90;;;;;;5145310;27;20083;-91
2020/12/21 02:54:19;;;;;;;45.78;24.65;;;-0.60;99.90;;;;;;5167691;27;20192;-91
2020/12/21 02:58:25;;;;;;;47.10;23.30;;;-0.60;99.90;;;;;;5126136;27;20143;-90
2020/12/21 03:01:49;;;;;;;51.00;23.62;;;-0.50;99.90;;;;;;5146559;27;20132;-90
2020/12/21 03:04:54;;;;;;;45.10;22.77;;;-0.50;99.90;;;;;;5141958;27;20184;-90
2020/12/21 03:08:42;;;;;;;49.35;26.05;;;-0.40;99.90;;;;;;5053666;28;20425;-90
2020/12/21 03:12:39;;;;;;;;;;;;;;;;;;;;;
2020/12/21 03:16:13;;;;;;;50.83;24.58;;;-0.30;99.90;;;;;;4965456;28;20140;-90
2020/12/21 06:05:38;;;;;;;47.45;27.37;;;1.10;99.90;;;;;;5092316;28;20110;-91
2020/12/21 06:09:34;;;;;;;52.35;25.98;;;1.10;99.90;;;;;;5014299;28;20096;-90
2020/12/21 06:12:59;;;;;;;48.70;26.33;;;1.10;99.90;;;;;;5111415;27;20452;-89
2020/12/21 06:16:25;;;;;;;50.78;27.15;;;1.10;99.90;;;;;;5114339;28;20105;-89
2020/12/21 06:19:42;;;;;;;50.85;26.45;;;1.20;99.90;;;;;;5066658;28;20091;-89
2020/12/21 06:22:54;;;;;;;52.38;27.98;;;1.10;99.90;;;;;;5081205;28;20118;-90
2020/12/21 06:26:12;;;;;;;51.37;26.45;;;1.20;99.90;;;;;;5099085;27;20087;-91
2020/12/21 06:29:14;;;;;;;44.25;24.25;;;1.20;99.90;;;;;;5189851;27;20086;-91
2020/12/21 06:32:17;;;;;;;48.60;27.13;;;1.30;99.90;;;;;;5171383;27;20106;-91
2020/12/21 06:35:28;;;;;;;41.85;25.37;;;1.20;99.90;;;;;;5143486;27;20443;-90
2020/12/21 06:38:21;;;;;;;45.72;26.60;;;1.20;99.90;;;;;;5185615;27;20102;-91
2020/12/21 06:41:39;;;;;;;76.07;41.37;;;1.20;99.90;;;;;;5175988;27;20152;-90
2020/12/21 06:45:08;;;;;;;152.35;74.20;;;1.30;99.90;;;;;;5170801;27;20501;-90
2020/12/21 06:48:47;;;;;;;54.88;30.12;;;1.30;99.90;;;;;;5150372;27;20148;-88
2020/12/21 07:04:41;;;;;;;53.80;30.25;;;1.40;99.90;;;;;;5053005;28;20108;-91
2020/12/21 07:08:53;;;;;;;;;;;;;;;;;;;;;
2020/12/21 07:12:11;;;;;;;53.87;31.33;;;1.50;99.90;;;;;;4998584;28;20496;-89
2020/12/21 07:15:43;;;;;;;54.92;32.08;;;1.40;99.90;;;;;;5009478;28;20108;-88
2020/12/21 07:18:50;;;;;;;;;;;;;;;;;;;;;
2020/12/21 07:22:06;;;;;;;54.97;32.85;;;1.60;99.90;;;;;;5082503;28;20105;-88
2020/12/21 07:29:45;;;;;;;;;;;1.70;99.90;;;;;;5112083;28;20534;-88
2020/12/21 07:32:49;;;;;;;53.55;27.25;;;1.70;99.90;;;;;;5154076;27;20088;-87
2020/12/21 07:35:37;;;;;;;54.80;30.60;;;1.70;99.90;;;;;;5068317;28;20107;-87
2020/12/21 07:38:37;;;;;;;73.68;38.47;;;1.70;99.90;;;;;;5100299;27;20106;-87
2020/12/21 07:41:23;;;;;;;61.25;37.33;;;1.90;99.90;;;;;;5144669;27;20102;-87
2020/12/21 07:44:32;;;;;;;57.53;34.95;;;1.80;99.90;;;;;;5181850;27;20089;-88
2020/12/21 07:47:26;;;;;;;53.15;32.65;;;1.90;99.90;;;;;;5140967;27;20091;-89
2020/12/21 07:50:39;;;;;;;70.65;44.25;;;1.90;99.90;;;;;;5161746;27;20090;-88
2020/12/21 08:01:51;;;;;;;;;;;;;;;;;;;;;
2020/12/21 08:04:44;;;;;;;49.53;28.25;;;2.20;99.90;;;;;;5124151;27;20131;-89
2020/12/21 08:07:44;;;;;;;48.20;27.27;;;2.20;99.90;;;;;;5121517;27;20087;-86
2020/12/21 08:10:35;;;;;;;49.85;30.30;;;2.20;99.90;;;;;;5111669;27;20118;-88
2020/12/21 08:13:19;;;;;;;41.65;24.02;;;2.20;99.90;;;;;;5133923;27;20117;-89
2020/12/21 08:16:13;;;;;;;50.50;29.15;;;2.30;99.90;;;;;;5115478;28;20103;-89
2020/12/21 08:18:52;;;;;;;53.85;32.00;;;2.30;99.90;;;;;;5135990;27;20095;-92
2020/12/21 08:21:44;;;;;;;46.97;27.87;;;2.30;99.90;;;;;;5157054;27;20139;-89
2020/12/21 08:24:25;;;;;;;50.03;31.55;;;2.30;99.90;;;;;;5162878;27;20107;-91
2020/12/21 08:27:19;;;;;;;68.32;31.67;;;2.30;99.90;;;;;;5200523;27;20086;-89
2020/12/21 08:30:15;;;;;;;298.13;109.20;;;2.30;99.90;;;;;;5131649;27;20109;-89
2020/12/21 08:33:14;;;;;;;138.07;70.37;;;2.40;99.90;;;;;;5159830;27;20415;-89
2020/12/21 08:36:17;;;;;;;123.97;66.20;;;2.40;99.90;;;;;;5205968;27;20208;-89
2020/12/21 08:39:16;;;;;;;85.05;52.92;;;2.40;99.90;;;;;;5146547;27;20175;-89
2020/12/21 08:41:58;;;;;;;60.15;35.55;;;2.40;99.90;;;;;;5165807;27;20174;-90
2020/12/21 08:44:53;;;;;;;53.35;33.53;;;2.50;99.90;;;;;;5190824;27;20105;-90
2020/12/21 08:47:35;;;;;;;73.47;36.08;;;2.50;99.90;;;;;;5162234;27;20519;-91
2020/12/21 08:50:34;;;;;;;63.67;36.42;;;2.50;99.90;;;;;;5154310;27;20083;-93
2020/12/21 08:53:13;;;;;;;65.45;38.45;;;2.50;99.90;;;;;;5160773;27;20087;-90
2020/12/21 08:56:16;;;;;;;65.28;36.75;;;2.50;99.90;;;;;;5128159;27;20098;-90
2020/12/21 08:58:58;;;;;;;58.70;33.83;;;2.60;99.90;;;;;;5137831;28;20098;-90
2020/12/21 09:02:08;;;;;;;83.50;45.08;;;2.60;99.90;;;;;;5165740;27;20106;-92
2020/12/21 09:05:07;;;;;;;56.70;33.75;;;2.70;99.90;;;;;;5213469;27;20125;-92
2020/12/21 09:08:33;;;;;;;51.13;30.27;;;2.60;99.90;;;;;;5147283;27;20083;-92
2020/12/21 09:11:32;;;;;;;41.63;24.20;;;2.70;99.90;;;;;;5182714;27;20090;-92
2020/12/21 09:14:31;;;;;;;60.20;34.25;;;2.70;99.90;;;;;;5149983;27;20118;-91
2020/12/21 09:18:09;;;;;;;62.28;35.42;;;2.70;99.90;;;;;;5177860;27;20102;-93
2020/12/21 09:21:37;;;;;;;57.17;33.03;;;2.80;99.90;;;;;;5104301;28;20107;-92
2020/12/21 09:28:46;;;;;;;55.00;34.45;;;2.90;99.90;;;;;;5077481;28;20092;-91
2020/12/21 09:31:31;;;;;;;47.78;27.90;;;3.00;99.90;;;;;;5077286;28;20111;-90
2020/12/21 09:34:29;;;;;;;43.35;24.45;;;3.00;99.90;;;;;;5045011;28;20119;-90
2020/12/21 09:37:31;;;;;;;32.53;19.67;;;3.10;99.90;;;;;;5093194;28;20163;-91
2020/12/21 09:40:29;;;;;;;31.75;19.40;;;3.10;99.90;;;;;;5159937;27;20098;-90
2020/12/21 09:43:26;;;;;;;27.80;16.45;;;3.10;99.90;;;;;;5130778;27;20086;-89
2020/12/21 09:46:24;;;;;;;27.83;15.63;;;3.20;99.90;;;;;;5114605;28;20122;-89
2020/12/21 09:49:09;;;;;;;24.70;13.88;;;3.20;99.90;;;;;;5114726;28;20457;-89
2020/12/21 09:52:24;;;;;;;;;;;;;;;;;;;;;
2020/12/21 09:56:02;;;;;;;27.95;15.70;;;3.40;99.90;;;;;;5118873;27;20107;-91
2020/12/21 09:58:58;;;;;;;23.62;12.68;;;3.50;99.90;;;;;;5157968;27;20254;-90
2020/12/21 10:02:02;;;;;;;33.38;19.70;;;3.60;99.90;;;;;;5147392;27;20402;-90
2020/12/21 10:05:04;;;;;;;59.10;32.25;;;3.80;99.90;;;;;;5152611;27;20162;-89
2020/12/21 10:08:10;;;;;;;;;;;;;;;;;;;;;
2020/12/21 10:11:11;;;;;;;62.83;35.75;;;3.80;99.90;;;;;;5143656;27;20087;-90
2020/12/21 10:14:17;;;;;;;62.20;34.13;;;3.80;99.90;;;;;;5117040;28;20176;-91
2020/12/21 10:17:15;;;;;;;58.38;32.97;;;3.90;99.90;;;;;;5132850;27;20376;-89
2020/12/21 10:20:13;;;;;;;50.22;29.23;;;3.90;99.90;;;;;;5153785;27;20087;-88
2020/12/21 10:23:00;;;;;;;50.58;28.08;;;3.90;99.90;;;;;;5143931;27;20409;-89
2020/12/21 10:26:05;;;;;;;50.75;27.95;;;4.00;99.90;;;;;;5148776;27;20106;-89
2020/12/21 10:28:47;;;;;;;52.58;27.75;;;4.00;99.90;;;;;;5161425;27;20441;-89
2020/12/21 10:31:46;;;;;;;47.62;26.58;;;4.10;99.90;;;;;;5153857;27;20110;-89
2020/12/21 10:34:30;;;;;;;40.63;21.95;;;4.20;99.90;;;;;;5166055;27;20104;-90
2020/12/21 10:37:34;;;;;;;40.35;24.08;;;4.20;99.90;;;;;;5139166;27;20142;-90
2020/12/21 10:40:20;;;;;;;34.40;21.50;;;4.30;99.90;;;;;;5158270;27;20114;-89
2020/12/21 10:43:17;;;;;;;35.38;20.98;;;4.40;99.90;;;;;;5144821;27;20087;-90
2020/12/21 10:46:01;;;;;;;35.53;20.50;;;4.40;99.90;;;;;;5170706;27;20087;-91
2020/12/21 10:48:53;;;;;;;23.02;13.60;;;4.50;99.90;;;;;;5126194;27;20110;-91
2020/12/21 10:51:44;;;;;;;21.67;13.38;;;4.50;99.90;;;;;;5126118;27;20090;-92
2020/12/21 10:54:36;;;;;;;19.87;12.45;;;4.60;99.90;;;;;;5132268;28;20156;-92
2020/12/21 10:57:15;;;;;;;22.30;13.88;;;4.70;99.90;;;;;;5161073;27;20102;-92
2020/12/21 11:00:10;;;;;;;23.98;14.10;;;4.80;99.90;;;;;;5173285;27;20160;-93
2020/12/21 11:03:06;;;;;;;21.37;12.68;;;4.80;99.90;;;;;;5119850;28;20492;-91
2020/12/21 11:05:57;;;;;;;21.65;13.18;;;4.90;99.90;;;;;;5160320;27;20178;-92
2020/12/21 11:08:36;;;;;;;20.90;12.60;;;5.00;99.90;;;;;;5124141;27;20102;-92
2020/12/21 11:11:31;;;;;;;21.08;13.82;;;4.90;99.90;;;;;;4834715;27;20083;-91
2020/12/21 11:14:13;;;;;;;21.12;13.27;;;4.90;99.90;;;;;;5142778;27;20138;-90
2020/12/21 11:17:10;;;;;;;41.78;23.20;;;5.10;99.90;;;;;;5136960;28;20168;-90
2020/12/21 11:19:54;;;;;;;47.90;27.50;;;5.00;99.90;;;;;;5179736;27;20090;-90
2020/12/21 11:22:55;;;;;;;56.65;31.12;;;5.10;99.90;;;;;;5146116;27;20087;-92
2020/12/21 11:25:59;;;;;;;51.20;30.52;;;5.10;99.90;;;;;;5262519;27;20603;-92
2020/12/21 11:29:12;;;;;;;71.90;37.08;;;5.10;99.90;;;;;;5182461;27;20102;-92
2020/12/21 11:32:03;;;;;;;58.92;30.35;;;5.20;99.90;;;;;;5168401;27;20139;-92
2020/12/21 11:35:02;;;;;;;42.03;22.08;;;5.20;99.90;;;;;;5193869;27;20247;-92
2020/12/21 11:38:01;;;;;;;59.83;31.33;;;5.20;99.90;;;;;;5259770;27;20144;-90
2020/12/21 11:40:53;;;;;;;62.28;33.08;;;5.20;99.90;;;;;;5189719;27;20134;-92
2020/12/21 11:43:36;;;;;;;57.70;31.75;;;5.20;99.90;;;;;;5180610;27;20448;-92
2020/12/21 11:46:36;;;;;;;37.08;21.77;;;5.20;99.90;;;;;;5145763;27;20146;-91
2020/12/21 11:49:26;;;;;;;30.58;18.02;;;5.30;99.90;;;;;;5228797;27;20097;-92
2020/12/21 11:52:18;;;;;;;26.30;15.68;;;5.30;99.90;;;;;;5194987;27;20105;-91
2020/12/21 11:55:15;;;;;;;46.37;27.55;;;5.30;99.90;;;;;;5132809;27;20147;-92
2020/12/21 11:58:15;;;;;;;34.00;19.25;;;5.30;99.90;;;;;;5112900;28;20091;-93
2020/12/21 12:01:00;;;;;;;32.53;17.95;;;5.30;99.90;;;;;;5122368;28;20110;-92
2020/12/21 12:03:46;;;;;;;28.20;17.10;;;5.30;99.90;;;;;;5129401;27;20114;-92
2020/12/21 12:07:07;;;;;;;43.17;23.08;;;5.30;99.90;;;;;;5198516;27;20130;-92
2020/12/21 12:10:09;;;;;;;;;;;;;;;;;;;;;
2020/12/21 12:13:21;;;;;;;64.57;35.20;;;5.30;99.90;;;;;;5083157;28;20114;-93
2020/12/21 12:16:22;;;;;;;67.90;38.22;;;5.30;99.90;;;;;;5132331;27;20091;-92
2020/12/21 12:19:04;;;;;;;58.00;33.45;;;5.30;99.90;;;;;;5129765;27;20100;-92
2020/12/21 12:22:29;;;;;;;;;;;5.30;99.90;;;;;;5136001;27;20087;-92
2020/12/21 12:26:07;;;;;;;41.55;23.23;;;5.30;99.90;;;;;;5104484;28;19951;-92
2020/12/21 12:28:56;;;;;;;34.65;20.33;;;5.30;99.90;;;;;;5132855;27;20407;-91
2020/12/21 12:31:47;;;;;;;34.50;19.90;;;5.20;99.90;;;;;;5103755;28;20096;-91
2020/12/21 12:34:26;;;;;;;33.63;19.20;;;5.20;99.90;;;;;;5084835;28;20139;-90
2020/12/21 12:37:18;;;;;;;33.95;19.52;;;5.30;99.90;;;;;;5122682;28;20102;-91
2020/12/21 12:39:57;;;;;;;30.73;18.75;;;5.20;99.90;;;;;;5100166;28;20087;-91
2020/12/21 12:42:50;;;;;;;30.27;16.42;;;5.20;99.90;;;;;;5124908;28;20156;-90
2020/12/21 12:45:40;;;;;;;34.55;17.45;;;5.20;99.90;;;;;;5122538;28;20135;-91
2020/12/21 12:48:36;;;;;;;29.23;17.10;;;5.30;99.90;;;;;;5106391;28;20090;-93
2020/12/21 12:51:24;;;;;;;28.42;16.77;;;5.30;99.90;;;;;;5154749;27;20094;-90
2020/12/21 12:54:13;;;;;;;32.17;17.80;;;5.40;99.90;;;;;;5160495;27;20095;-89
2020/12/21 12:57:03;;;;;;;29.50;16.80;;;5.30;99.90;;;;;;5136687;27;20087;-91
2020/12/21 12:59:42;;;;;;;33.20;18.67;;;5.30;99.90;;;;;;5139998;28;20091;-89
2020/12/21 13:02:37;;;;;;;28.00;16.95;;;5.30;99.90;;;;;;5166188;27;20090;-89
2020/12/21 13:09:19;;;;;;;29.10;17.30;;;5.40;99.90;;;;;;5184628;27;20097;-88
2020/12/21 13:12:13;;;;;;;43.58;23.58;;;5.30;99.90;;;;;;5180536;27;20095;-90
2020/12/21 13:14:56;;;;;;;113.45;56.20;;;5.40;99.90;;;;;;5163211;27;20091;-92
2020/12/21 13:17:55;;;;;;;120.85;55.72;;;5.40;99.90;;;;;;5182614;27;20094;-91
2020/12/21 13:20:52;;;;;;;138.18;51.20;;;5.40;99.90;;;;;;5087607;28;20084;-91
2020/12/21 13:23:57;;;;;;;94.62;36.67;;;5.40;99.90;;;;;;5106751;28;20096;-91
2020/12/21 13:26:56;;;;;;;120.57;44.78;;;5.50;99.90;;;;;;5088686;28;20144;-92
2020/12/21 13:29:52;;;;;;;274.73;92.18;;;5.50;99.90;;;;;;5087616;28;20183;-91
2020/12/21 13:32:37;;;;;;;186.75;72.22;;;5.40;99.90;;;;;;5131000;28;20088;-91
2020/12/21 13:35:38;;;;;;;84.90;38.13;;;5.40;99.90;;;;;;5108502;28;20083;-89
2020/12/21 13:38:20;;;;;;;49.35;26.85;;;5.40;99.90;;;;;;5093046;27;20101;-90
2020/12/21 13:41:12;;;;;;;55.10;30.55;;;5.30;99.90;;;;;;5174756;27;20106;-90
2020/12/21 13:43:54;;;;;;;45.55;26.87;;;5.20;99.90;;;;;;5139970;27;20131;-91
2020/12/21 13:46:54;;;;;;;45.38;28.48;;;5.30;99.90;;;;;;5141349;27;20084;-89
2020/12/21 13:49:33;;;;;;;44.03;25.52;;;5.30;99.90;;;;;;5163165;27;20542;-90
2020/12/21 13:52:32;;;;;;;47.13;28.25;;;5.10;99.90;;;;;;5139472;27;20470;-90
2020/12/21 13:55:11;;;;;;;44.45;27.17;;;5.10;99.90;;;;;;5141548;27;20146;-91
2020/12/21 13:58:03;;;;;;;48.65;28.12;;;5.10;99.90;;;;;;5106820;28;20176;-91
2020/12/21 14:00:43;;;;;;;45.17;28.87;;;5.10;99.90;;;;;;5154329;27;20138;-91
2020/12/21 14:03:38;;;;;;;70.65;40.03;;;5.00;99.90;;;;;;5140168;27;20087;-91
2020/12/21 14:06:19;;;;;;;88.65;50.65;;;5.00;99.90;;;;;;5153832;27;20110;-91
2020/12/21 14:09:13;;;;;;;74.90;43.30;;;4.90;99.90;;;;;;5143979;27;20113;-91
2020/12/21 14:11:52;;;;;;;87.75;45.17;;;4.90;99.90;;;;;;5130398;28;20101;-91
2020/12/21 14:14:47;;;;;;;88.93;49.33;;;5.00;99.90;;;;;;5125172;27;20216;-90
2020/12/21 14:17:26;;;;;;;81.12;45.75;;;4.80;99.90;;;;;;5110227;27;20107;-90
2020/12/21 14:20:19;;;;;;;68.43;39.20;;;4.80;99.90;;;;;;5134379;28;20164;-91
2020/12/21 14:23:10;;;;;;;57.08;32.05;;;4.80;99.90;;;;;;5172975;27;20114;-90
2020/12/21 14:26:01;;;;;;;47.13;24.58;;;4.70;99.90;;;;;;5167943;27;20482;-91
2020/12/21 14:28:41;;;;;;;49.55;27.70;;;4.70;99.90;;;;;;5142656;27;21012;-91
2020/12/21 14:31:33;;;;;;;64.78;37.72;;;4.70;99.90;;;;;;5149607;27;20179;-90
2020/12/21 14:34:11;;;;;;;47.70;29.80;;;4.60;99.90;;;;;;5141703;27;20476;-90
2020/12/21 14:37:03;;;;;;;50.72;29.95;;;4.50;99.90;;;;;;5105949;28;20388;-90
2020/12/21 14:39:45;;;;;;;49.33;32.33;;;4.50;99.90;;;;;;5191012;27;20117;-90
2020/12/21 14:42:37;;;;;;;32.92;20.77;;;4.50;99.90;;;;;;5146487;27;20091;-91
2020/12/21 14:45:19;;;;;;;36.40;21.42;;;4.50;99.90;;;;;;5142481;27;20110;-91
2020/12/21 14:48:10;;;;;;;40.08;23.42;;;4.50;99.90;;;;;;5139336;27;20507;-90
2020/12/21 14:50:49;;;;;;;57.17;33.90;;;4.50;99.90;;;;;;5141684;27;20094;-90
2020/12/21 14:53:45;;;;;;;56.80;33.35;;;4.40;99.90;;;;;;5114179;27;20515;-90
2020/12/21 14:56:26;;;;;;;45.10;26.35;;;4.40;99.90;;;;;;5194072;27;20095;-91
2020/12/21 14:59:20;;;;;;;36.55;20.30;;;4.30;99.90;;;;;;5112930;28;20084;-92
2020/12/21 15:02:17;;;;;;;40.55;24.45;;;4.30;99.90;;;;;;5139941;27;20142;-92
2020/12/21 15:05:12;;;;;;;34.90;19.65;;;4.30;99.90;;;;;;5139730;27;20479;-91
2020/12/21 15:07:50;;;;;;;39.35;22.05;;;4.30;99.90;;;;;;5154925;27;20099;-91
2020/12/21 15:10:41;;;;;;;39.03;22.45;;;4.30;99.90;;;;;;5119626;28;20107;-91
2020/12/21 15:13:21;;;;;;;44.85;24.73;;;4.20;99.90;;;;;;5121635;28;20087;-91
2020/12/21 15:16:13;;;;;;;31.33;18.70;;;4.10;99.90;;;;;;5132436;27;20114;-90
2020/12/21 15:18:54;;;;;;;41.58;22.17;;;4.10;99.90;;;;;;5125271;27;20462;-92
2020/12/21 15:21:52;;;;;;;39.88;22.02;;;4.00;99.90;;;;;;5149066;27;20184;-92
2020/12/21 15:24:34;;;;;;;42.03;23.52;;;4.00;99.90;;;;;;5128135;27;20117;-93
2020/12/21 15:27:31;;;;;;;66.53;34.50;;;4.00;99.90;;;;;;5127416;27;20456;-93
2020/12/21 15:30:29;;;;;;;55.80;28.48;;;4.00;99.90;;;;;;5197740;27;20094;-93
2020/12/21 15:33:17;;;;;;;50.85;29.08;;;4.00;99.90;;;;;;5173314;27;20093;-93
2020/12/21 15:39:45;;;;;;;66.43;34.15;;;3.90;99.90;;;;;;5199744;27;20098;-95
2020/12/21 15:43:07;;;;;;;77.15;42.15;;;3.90;99.90;;;;;;5168459;27;20161;-94
2020/12/21 15:46:10;;;;;;;;;;;3.90;99.90;;;;;;5126924;27;20087;-95
2020/12/21 15:49:07;;;;;;;98.50;45.90;;;3.70;99.90;;;;;;5175625;27;19993;-94
2020/12/21 15:51:50;;;;;;;92.85;45.00;;;3.60;99.90;;;;;;5158794;27;20090;-94
2020/12/21 15:54:48;;;;;;;105.82;46.28;;;3.50;99.90;;;;;;4571496;27;20091;-92
2020/12/21 15:57:44;;;;;;;111.62;47.33;;;3.50;99.90;;;;;;5128091;27;20105;-93
2020/12/21 16:00:42;;;;;;;109.72;47.47;;;3.40;99.90;;;;;;5125905;28;20386;-93
2020/12/21 16:03:36;;;;;;;98.87;47.83;;;3.40;99.90;;;;;;5166978;27;20490;-91
2020/12/21 16:06:20;;;;;;;104.93;52.45;;;3.30;99.90;;;;;;5128893;27;20106;-91
2020/12/21 16:09:12;;;;;;;107.18;54.67;;;3.30;99.90;;;;;;5171993;27;20108;-91
2020/12/21 16:11:51;;;;;;;109.45;56.97;;;3.30;99.90;;;;;;5091033;28;20384;-92
2020/12/21 16:14:42;;;;;;;102.40;54.95;;;3.20;99.90;;;;;;5146717;27;20171;-91
2020/12/21 16:17:27;;;;;;;91.47;49.22;;;3.20;99.90;;;;;;5161800;27;20091;-92
2020/12/21 16:20:18;;;;;;;78.28;44.80;;;3.10;99.90;;;;;;5133090;27;20166;-92
2020/12/21 16:22:57;;;;;;;94.25;53.28;;;3.10;99.90;;;;;;5163391;27;20108;-93
2020/12/21 16:25:51;;;;;;;87.37;46.85;;;3.10;99.90;;;;;;5162512;27;20376;-93
2020/12/21 16:28:32;;;;;;;105.53;55.80;;;3.00;99.90;;;;;;5113263;27;20102;-93
2020/12/21 16:31:23;;;;;;;95.18;53.35;;;3.10;99.90;;;;;;5175193;27;20098;-92
2020/12/21 16:34:01;;;;;;;100.45;53.70;;;3.00;99.90;;;;;;5106608;28;20091;-93
2020/12/21 16:36:53;;;;;;;106.47;55.80;;;3.00;99.90;;;;;;5137601;28;20172;-92
2020/12/21 16:39:34;;;;;;;114.95;60.30;;;3.00;99.90;;;;;;5136966;28;20143;-92
2020/12/21 16:42:26;;;;;;;93.87;51.37;;;3.00;99.90;;;;;;5157770;27;20184;-92
2020/12/21 16:45:05;;;;;;;99.95;52.45;;;3.00;99.90;;;;;;5141352;27;20105;-91
2020/12/21 16:48:02;;;;;;;87.22;45.70;;;3.00;99.90;;;;;;5163433;27;20207;-93
2020/12/21 16:50:44;;;;;;;81.55;43.50;;;2.90;99.90;;;;;;5131891;27;20110;-93
2020/12/21 16:53:39;;;;;;;82.32;43.20;;;2.90;99.90;;;;;;5161617;27;20095;-93
2020/12/21 16:56:24;;;;;;;188.35;82.03;;;2.90;99.90;;;;;;5150084;27;20087;-93
2020/12/21 16:59:20;;;;;;;87.70;47.08;;;2.90;99.90;;;;;;5142106;27;20103;-93
2020/12/21 17:02:01;;;;;;;81.78;45.42;;;2.80;99.90;;;;;;5106362;28;20106;-93
2020/12/21 17:04:52;;;;;;;86.37;45.58;;;2.80;99.90;;;;;;5116594;28;20095;-94
2020/12/21 17:07:35;;;;;;;81.35;42.25;;;2.80;99.90;;;;;;5147482;27;20091;-93
2020/12/21 17:10:29;;;;;;;207.23;115.65;;;2.70;99.90;;;;;;5148823;27;20087;-93
2020/12/21 17:13:08;;;;;;;104.28;56.17;;;2.70;99.90;;;;;;5164518;27;20083;-93
2020/12/21 17:16:03;;;;;;;92.20;48.72;;;2.60;99.90;;;;;;5160278;27;20087;-92
2020/12/21 17:18:45;;;;;;;112.12;63.60;;;2.60;99.90;;;;;;5185239;27;20177;-93
2020/12/21 17:21:39;;;;;;;133.30;83.07;;;2.50;99.90;;;;;;5166472;27;20095;-92
2020/12/21 17:24:20;;;;;;;138.85;90.93;;;2.50;99.90;;;;;;5144002;27;20100;-92
2020/12/21 17:27:14;;;;;;;146.25;88.90;;;2.50;99.90;;;;;;5138114;28;20087;-93
2020/12/21 17:30:10;;;;;;;96.90;54.97;;;2.50;99.90;;;;;;5150413;27;20102;-93
2020/12/21 17:33:04;;;;;;;87.53;50.03;;;2.40;99.90;;;;;;5112153;28;20505;-93
2020/12/21 17:35:43;;;;;;;86.00;44.67;;;2.40;99.90;;;;;;5158543;27;20167;-93
2020/12/21 17:38:35;;;;;;;82.15;41.65;;;2.40;99.90;;;;;;5140603;27;20110;-93
2020/12/21 17:41:15;;;;;;;83.28;42.35;;;2.40;99.90;;;;;;5166213;27;20095;-92
2020/12/21 17:44:12;;;;;;;77.70;39.65;;;2.30;99.90;;;;;;5182711;27;20518;-92
2020/12/21 17:46:54;;;;;;;79.87;41.53;;;2.30;99.90;;;;;;5127646;27;20086;-92
2020/12/21 17:49:48;;;;;;;151.05;83.25;;;2.30;99.90;;;;;;5158610;27;20499;-92
2020/12/21 17:52:29;;;;;;;240.82;112.55;;;2.20;99.90;;;;;;5159165;27;20087;-92
2020/12/21 17:55:24;;;;;;;254.80;114.32;;;2.20;99.90;;;;;;5121061;28;20108;-92
2020/12/21 17:58:03;;;;;;;217.65;103.10;;;2.20;99.90;;;;;;5167444;27;20097;-92
2020/12/21 18:01:03;;;;;;;330.10;141.35;;;2.20;99.90;;;;;;5108264;28;20109;-91
2020/12/21 18:03:59;;;;;;;334.15;137.20;;;2.20;99.90;;;;;;5135491;27;20094;-92
2020/12/21 18:10:25;;;;;;;381.77;172.50;;;2.10;99.90;;;;;;5179438;27;20121;-93
2020/12/21 18:13:07;;;;;;;379.70;172.77;;;2.10;99.90;;;;;;5162580;27;20087;-90
2020/12/21 18:16:01;;;;;;;321.08;154.38;;;2.10;99.90;;;;;;5131750;27;20106;-92
2020/12/21 18:18:40;;;;;;;228.62;114.20;;;2.00;99.90;;;;;;5177215;27;20407;-92
2020/12/21 18:21:37;;;;;;;109.30;57.55;;;2.00;99.90;;;;;;5154790;27;20087;-90
2020/12/21 18:24:19;;;;;;;84.78;44.33;;;2.00;99.90;;;;;;5106401;28;20139;-90
2020/12/21 18:27:16;;;;;;;73.30;38.55;;;2.00;99.90;;;;;;5128945;27;20091;-90
2020/12/21 18:30:13;;;;;;;78.68;46.25;;;2.00;99.90;;;;;;5140273;27;20183;-90
2020/12/21 18:33:11;;;;;;;77.72;41.20;;;2.00;99.90;;;;;;5139587;27;20086;-90
2020/12/21 18:35:53;;;;;;;84.25;48.05;;;2.00;99.90;;;;;;5161821;27;20105;-91
2020/12/21 18:38:50;;;;;;;78.40;42.97;;;2.00;99.90;;;;;;5152268;27;20908;-90
2020/12/21 18:41:32;;;;;;;68.70;37.40;;;2.00;99.90;;;;;;5148635;27;20102;-90
2020/12/21 18:44:30;;;;;;;83.68;45.65;;;1.90;99.90;;;;;;5139211;28;20106;-90
2020/12/21 18:47:15;;;;;;;78.90;41.90;;;1.90;99.90;;;;;;5123444;28;20114;-90
2020/12/21 18:50:13;;;;;;;89.32;45.53;;;1.90;99.90;;;;;;5149189;27;20103;-90
2020/12/21 18:52:58;;;;;;;75.75;38.90;;;1.90;99.90;;;;;;5161224;27;20110;-89
2020/12/21 18:56:05;;;;;;;60.88;32.97;;;1.90;99.90;;;;;;5173008;27;20138;-90
2020/12/21 18:58:50;;;;;;;50.47;27.52;;;1.90;99.90;;;;;;5198512;27;20108;-91
2020/12/21 19:02:05;;;;;;;55.88;29.75;;;1.90;99.90;;;;;;5194531;27;20378;-90
2020/12/21 19:04:48;;;;;;;61.95;34.80;;;1.90;99.90;;;;;;5145585;27;20099;-90
2020/12/21 19:07:45;;;;;;;;;;;1.90;99.90;;;;;;5152900;27;20091;-90
2020/12/21 19:10:26;;;;;;;64.25;34.42;;;1.90;99.90;;;;;;5217091;27;19954;-90
2020/12/21 19:13:25;;;;;;;66.15;35.35;;;1.90;99.90;;;;;;5119760;28;20103;-91
2020/12/21 19:19:48;;;;;;;;;;;1.80;99.90;;;;;;5185364;27;20123;-91
2020/12/21 19:22:57;;;;;;;47.90;26.85;;;1.80;99.90;;;;;;5126942;28;19959;-92
2020/12/21 19:26:14;;;;;;;69.32;36.45;;;1.80;99.90;;;;;;5209279;27;20093;-91
2020/12/21 19:29:06;;;;;;;80.80;43.45;;;1.80;99.90;;;;;;5192014;27;20095;-91
2020/12/21 19:32:08;;;;;;;82.53;43.17;;;1.80;99.90;;;;;;5190603;27;20142;-87
2020/12/21 19:35:06;;;;;;;89.18;45.67;;;1.70;99.90;;;;;;5176444;27;20066;-90
2020/12/21 19:37:57;;;;;;;86.00;46.90;;;1.70;99.90;;;;;;5169192;27;20163;-90
2020/12/21 19:41:05;;;;;;;97.68;48.30;;;1.70;99.90;;;;;;5161917;27;20112;-91
2020/12/21 19:44:03;;;;;;;84.32;44.50;;;1.60;99.90;;;;;;5206242;27;20139;-91
2020/12/21 19:47:02;;;;;;;94.30;46.88;;;1.60;99.90;;;;;;5191449;27;20141;-90
2020/12/21 19:49:47;;;;;;;84.75;44.05;;;1.60;99.90;;;;;;5170154;27;20059;-91
2020/12/21 19:52:42;;;;;;;95.28;48.67;;;1.60;99.90;;;;;;5116770;28;20106;-90
2020/12/21 19:55:38;;;;;;;103.90;50.78;;;1.50;99.90;;;;;;5110817;28;20146;-90
2020/12/21 19:58:34;;;;;;;106.15;49.55;;;1.50;99.90;;;;;;5118578;28;20103;-91
2020/12/21 20:01:27;;;;;;;96.37;47.35;;;1.50;99.90;;;;;;5123684;27;20091;-90
2020/12/21 20:04:12;;;;;;;92.68;45.42;;;1.40;99.90;;;;;;5157755;27;20082;-91
2020/12/21 20:07:01;;;;;;;93.35;46.13;;;1.40;99.90;;;;;;5108765;28;20107;-90
2020/12/21 20:09:59;;;;;;;83.43;42.00;;;1.40;99.90;;;;;;5149277;27;20102;-90
2020/12/21 20:12:46;;;;;;;89.53;43.78;;;1.40;99.90;;;;;;5136251;27;20091;-90
2020/12/21 20:15:49;;;;;;;;;;;1.30;99.90;;;;;;5174123;27;20098;-91
2020/12/21 20:18:29;;;;;;;84.90;42.47;;;1.40;99.90;;;;;;5130692;27;19962;-90
2020/12/21 20:21:29;;;;;;;85.62;43.00;;;1.20;99.90;;;;;;5153982;27;20175;-91
2020/12/21 20:24:55;;;;;;;78.10;41.60;;;1.30;99.90;;;;;;5185962;27;20106;-91
2020/12/21 20:28:19;;;;;;;65.18;35.03;;;1.30;99.90;;;;;;5147793;27;20101;-91
2020/12/21 20:31:02;;;;;;;74.12;38.08;;;1.30;99.90;;;;;;5169912;27;20090;-92